UAE98V EDDH-OMDB
Flight info
| Callsign | UAE98V |
|---|---|
| Flight time | N/A |
| Altitude | 23000 |
| Route | RAMAR6G RAMAR Z998 NUSGU/N0473F330 Z998 RATMO DCT HDO DCT KATQA DCT MAVOR DCT DEGET/N0474F350 DCT LAMIT DCT RASUB DCT ARTAT UP975 ERGUN UL124 EVSAS UM688 RATVO M688 SIDAD P975 SESRU M677 VUTEB |
| Aircraft | B77W/H-SDE1E2E3FGHIJ2J3J4J5M1RWXY/LB1D1 |
Departure
| Time | 2026-05-05 18:38 |
|---|---|
| Airport | Hamburg Helmut Schmidt Airport (EDDH) |
Arrival
| Time | N/A |
|---|---|
| Airport | Dubai International Airport (OMDB) |
| Time | Latitude | Longitude | Altitude | Speed | Heading |
|---|---|---|---|---|---|
| 2026-05-05 17:30 | 53.63016 | 10.00337 | 56 ft | 0 kts | 122° |
| 2026-05-05 18:31 | 53.63025 | 10.00311 | 68 ft | 4 kts | 122° |
| 2026-05-05 18:31 | 53.63040 | 10.00273 | 47 ft | 4 kts | 122° |
| 2026-05-05 18:31 | 53.63051 | 10.00243 | 47 ft | 4 kts | 130° |
| 2026-05-05 18:31 | 53.63067 | 10.00222 | 47 ft | 4 kts | 201° |
| 2026-05-05 18:32 | 53.63066 | 10.00220 | 47 ft | 0 kts | 212° |
| 2026-05-05 18:33 | 53.63062 | 10.00215 | 47 ft | 6 kts | 212° |
| 2026-05-05 18:34 | 53.63011 | 10.00160 | 48 ft | 9 kts | 212° |
| 2026-05-05 18:34 | 53.62957 | 10.00102 | 52 ft | 9 kts | 212° |
| 2026-05-05 18:34 | 53.62899 | 10.00058 | 50 ft | 9 kts | 193° |
| 2026-05-05 18:34 | 53.62857 | 10.00017 | 51 ft | 7 kts | 229° |
| 2026-05-05 18:35 | 53.62834 | 9.99946 | 47 ft | 8 kts | 245° |
| 2026-05-05 18:35 | 53.62809 | 9.99837 | 50 ft | 11 kts | 270° |
| 2026-05-05 18:35 | 53.62863 | 9.99747 | 48 ft | 8 kts | 331° |
| 2026-05-05 18:35 | 53.62867 | 9.99743 | 50 ft | 0 kts | 332° |
| 2026-05-05 18:37 | 53.62913 | 9.99703 | 50 ft | 23 kts | 333° |
| 2026-05-05 18:37 | 53.63271 | 9.99394 | 52 ft | 93 kts | 333° |
| 2026-05-05 18:37 | 53.64031 | 9.98742 | 51 ft | 153 kts | 332° |
| 2026-05-05 18:37 | 53.65110 | 9.97810 | 217 ft | 179 kts | 332° |
| 2026-05-05 18:38 | 53.66185 | 9.96831 | 724 ft | 181 kts | 335° |
| 2026-05-05 18:38 | 53.67352 | 9.95821 | 1220 ft | 187 kts | 338° |
| 2026-05-05 18:38 | 53.68531 | 9.94882 | 1618 ft | 197 kts | 341° |
| 2026-05-05 18:38 | 53.69880 | 9.94350 | 1912 ft | 206 kts | 1° |
| 2026-05-05 18:39 | 53.71369 | 9.94538 | 2122 ft | 225 kts | 8° |
| 2026-05-05 18:39 | 53.72947 | 9.95127 | 2443 ft | 235 kts | 27° |
| 2026-05-05 18:39 | 53.74191 | 9.96933 | 2971 ft | 244 kts | 58° |
| 2026-05-05 18:39 | 53.74853 | 9.99582 | 3613 ft | 246 kts | 69° |
| 2026-05-05 18:40 | 53.75541 | 10.02272 | 4062 ft | 253 kts | 64° |
| 2026-05-05 18:40 | 53.76320 | 10.05014 | 4588 ft | 262 kts | 63° |
| 2026-05-05 18:40 | 53.77149 | 10.07784 | 5282 ft | 266 kts | 62° |
| 2026-05-05 18:40 | 53.78010 | 10.10600 | 5901 ft | 272 kts | 63° |
| 2026-05-05 18:41 | 53.78615 | 10.13626 | 6338 ft | 279 kts | 86° |
| 2026-05-05 18:41 | 53.78200 | 10.16819 | 6837 ft | 283 kts | 122° |
| 2026-05-05 18:41 | 53.76994 | 10.19424 | 7314 ft | 283 kts | 132° |
| 2026-05-05 18:41 | 53.75746 | 10.22035 | 7910 ft | 287 kts | 128° |
| 2026-05-05 18:42 | 53.74549 | 10.24750 | 8613 ft | 289 kts | 127° |
| 2026-05-05 18:42 | 53.73362 | 10.27520 | 9258 ft | 293 kts | 127° |
| 2026-05-05 18:42 | 53.72216 | 10.30233 | 9873 ft | 296 kts | 127° |
| 2026-05-05 18:42 | 53.71011 | 10.33107 | 10326 ft | 307 kts | 127° |
| 2026-05-05 18:43 | 53.69747 | 10.36137 | 10474 ft | 329 kts | 127° |
| 2026-05-05 18:43 | 53.68389 | 10.39406 | 10659 ft | 351 kts | 127° |
| 2026-05-05 18:43 | 53.66948 | 10.42886 | 10846 ft | 371 kts | 126° |
| 2026-05-05 18:43 | 53.65457 | 10.46497 | 11433 ft | 380 kts | 126° |
| 2026-05-05 18:44 | 53.63933 | 10.50192 | 12128 ft | 388 kts | 126° |
| 2026-05-05 18:44 | 53.62383 | 10.53949 | 12970 ft | 392 kts | 126° |
| 2026-05-05 18:44 | 53.60841 | 10.57681 | 13812 ft | 396 kts | 126° |
| 2026-05-05 18:44 | 53.59237 | 10.61557 | 14550 ft | 401 kts | 126° |
| 2026-05-05 18:45 | 53.57632 | 10.65429 | 15292 ft | 405 kts | 126° |
| 2026-05-05 18:45 | 53.56009 | 10.69338 | 16048 ft | 409 kts | 127° |
| 2026-05-05 18:45 | 53.54368 | 10.73283 | 16783 ft | 414 kts | 127° |
| 2026-05-05 18:45 | 53.52726 | 10.77223 | 17473 ft | 419 kts | 127° |
| 2026-05-05 18:46 | 53.51098 | 10.81124 | 18171 ft | 424 kts | 127° |
| 2026-05-05 18:46 | 53.49398 | 10.85190 | 18874 ft | 425 kts | 127° |
| 2026-05-05 18:46 | 53.47697 | 10.89257 | 19636 ft | 426 kts | 127° |
| 2026-05-05 18:46 | 53.45986 | 10.93337 | 20267 ft | 430 kts | 127° |
| 2026-05-05 18:47 | 53.44250 | 10.97470 | 20844 ft | 435 kts | 127° |
| 2026-05-05 18:47 | 53.42538 | 11.01540 | 21379 ft | 440 kts | 127° |
| 2026-05-05 18:47 | 53.40764 | 11.05750 | 21984 ft | 444 kts | 128° |
| 2026-05-05 18:47 | 53.38971 | 11.10000 | 22581 ft | 448 kts | 128° |
| 2026-05-05 18:48 | 53.37159 | 11.14285 | 22942 ft | 453 kts | 128° |
| 2026-05-05 18:48 | 53.35338 | 11.18587 | 22891 ft | 453 kts | 128° |
| 2026-05-05 18:48 | 53.33519 | 11.22879 | 22893 ft | 451 kts | 128° |
| 2026-05-05 18:48 | 53.31701 | 11.27165 | 22893 ft | 451 kts | 128° |
| 2026-05-05 18:49 | 53.29881 | 11.31441 | 22902 ft | 452 kts | 128° |
| 2026-05-05 18:49 | 53.28055 | 11.35717 | 22889 ft | 452 kts | 129° |
| 2026-05-05 18:49 | 53.26098 | 11.39811 | 22887 ft | 450 kts | 135° |
| 2026-05-05 18:49 | 53.23867 | 11.43455 | 22892 ft | 447 kts | 142° |
| 2026-05-05 18:50 | 53.21513 | 11.46852 | 22900 ft | 448 kts | 141° |
| 2026-05-05 18:50 | 53.19206 | 11.50347 | 22895 ft | 449 kts | 140° |
| 2026-05-05 18:50 | 53.16918 | 11.53886 | 22883 ft | 448 kts | 140° |
| 2026-05-05 18:50 | 53.14626 | 11.57414 | 22885 ft | 448 kts | 140° |
| 2026-05-05 18:51 | 53.12331 | 11.60917 | 22886 ft | 447 kts | 141° |
| 2026-05-05 18:51 | 53.10037 | 11.64399 | 22887 ft | 446 kts | 141° |
| 2026-05-05 18:51 | 53.08516 | 11.66704 | 22898 ft | 447 kts | 141° |
| 2026-05-05 18:51 | 53.05425 | 11.71384 | 23565 ft | 452 kts | 141° |
| 2026-05-05 18:52 | 53.03098 | 11.74907 | 24137 ft | 453 kts | 141° |
| 2026-05-05 18:52 | 53.00764 | 11.78435 | 24653 ft | 455 kts | 141° |
| 2026-05-05 18:52 | 52.98498 | 11.82144 | 25117 ft | 461 kts | 136° |
| 2026-05-05 18:52 | 52.96509 | 11.86272 | 25543 ft | 468 kts | 129° |
| 2026-05-05 18:53 | 52.94609 | 11.90686 | 26017 ft | 471 kts | 130° |
| 2026-05-05 18:53 | 52.92744 | 11.94846 | 26446 ft | 473 kts | 131° |
| 2026-05-05 18:53 | 52.90810 | 11.99056 | 26867 ft | 476 kts | 131° |
| 2026-05-05 18:53 | 52.88862 | 12.03280 | 27261 ft | 479 kts | 131° |
| 2026-05-05 18:54 | 52.86887 | 12.07569 | 27653 ft | 482 kts | 131° |
| 2026-05-05 18:54 | 52.84872 | 12.11946 | 28056 ft | 485 kts | 131° |
| 2026-05-05 18:54 | 52.82890 | 12.16248 | 28432 ft | 487 kts | 131° |
| 2026-05-05 18:54 | 52.80828 | 12.20717 | 28776 ft | 490 kts | 132° |
| 2026-05-05 18:55 | 52.78750 | 12.25216 | 29101 ft | 493 kts | 132° |
| 2026-05-05 18:55 | 52.76669 | 12.29718 | 29553 ft | 493 kts | 132° |
| 2026-05-05 18:55 | 52.74588 | 12.34209 | 30083 ft | 491 kts | 132° |
| 2026-05-05 18:55 | 52.72499 | 12.38628 | 30551 ft | 487 kts | 135° |
| 2026-05-05 18:56 | 52.70200 | 12.42687 | 30964 ft | 481 kts | 142° |
| 2026-05-05 18:56 | 52.67695 | 12.46287 | 31341 ft | 476 kts | 147° |
| 2026-05-05 18:56 | 52.64998 | 12.49414 | 31726 ft | 471 kts | 152° |
| 2026-05-05 18:56 | 52.62267 | 12.52389 | 32140 ft | 470 kts | 152° |
| 2026-05-05 18:57 | 52.59564 | 12.55419 | 32533 ft | 470 kts | 151° |
| 2026-05-05 18:57 | 52.56876 | 12.58470 | 32779 ft | 471 kts | 150° |
| 2026-05-05 18:57 | 52.51544 | 12.64540 | 32850 ft | 476 kts | 150° |
| 2026-05-05 18:58 | 52.46117 | 12.70707 | 32839 ft | 471 kts | 150° |
| 2026-05-05 18:58 | 52.40735 | 12.76787 | 32854 ft | 469 kts | 150° |
| 2026-05-05 18:59 | 52.35389 | 12.82799 | 32838 ft | 470 kts | 151° |
| 2026-05-05 18:59 | 52.29999 | 12.88843 | 32823 ft | 470 kts | 150° |
| 2026-05-05 19:00 | 52.24699 | 12.94769 | 32809 ft | 469 kts | 150° |
| 2026-05-05 19:00 | 52.19400 | 13.00677 | 32825 ft | 469 kts | 150° |
| 2026-05-05 19:01 | 52.14008 | 13.06671 | 32825 ft | 469 kts | 150° |
| 2026-05-05 19:01 | 52.08675 | 13.12582 | 32819 ft | 469 kts | 150° |
| 2026-05-05 19:02 | 52.04189 | 13.17541 | 32818 ft | 469 kts | 150° |
| 2026-05-05 19:02 | 51.98790 | 13.23493 | 32803 ft | 469 kts | 150° |
| 2026-05-05 19:03 | 51.93411 | 13.29407 | 32789 ft | 468 kts | 150° |
| 2026-05-05 19:03 | 51.88013 | 13.35321 | 32801 ft | 469 kts | 150° |
| 2026-05-05 19:04 | 51.82614 | 13.41219 | 32809 ft | 470 kts | 151° |
| 2026-05-05 19:04 | 51.77182 | 13.47137 | 32805 ft | 472 kts | 151° |
| 2026-05-05 19:05 | 51.71732 | 13.53057 | 32800 ft | 472 kts | 150° |
| 2026-05-05 19:05 | 51.66291 | 13.58952 | 32803 ft | 471 kts | 150° |
| 2026-05-05 19:06 | 51.60863 | 13.64815 | 32781 ft | 470 kts | 150° |
| 2026-05-05 19:06 | 51.55430 | 13.70664 | 32805 ft | 470 kts | 150° |
| 2026-05-05 19:07 | 51.49988 | 13.76506 | 32807 ft | 471 kts | 150° |
| 2026-05-05 19:07 | 51.44602 | 13.82272 | 32805 ft | 471 kts | 150° |
| 2026-05-05 19:08 | 51.39153 | 13.88088 | 32802 ft | 470 kts | 150° |
| 2026-05-05 19:08 | 51.33715 | 13.93877 | 32801 ft | 469 kts | 150° |
| 2026-05-05 19:09 | 51.28356 | 13.99564 | 32805 ft | 469 kts | 150° |
| 2026-05-05 19:09 | 51.23000 | 14.05231 | 32804 ft | 468 kts | 150° |
| 2026-05-05 19:10 | 51.17568 | 14.10963 | 32806 ft | 468 kts | 150° |
| 2026-05-05 19:10 | 51.12145 | 14.16671 | 32799 ft | 467 kts | 150° |
| 2026-05-05 19:11 | 51.06723 | 14.22360 | 32791 ft | 466 kts | 150° |
| 2026-05-05 19:11 | 51.01318 | 14.28017 | 32797 ft | 465 kts | 150° |
| 2026-05-05 19:12 | 50.95900 | 14.33671 | 32788 ft | 466 kts | 150° |
| 2026-05-05 19:12 | 50.90760 | 14.39918 | 32794 ft | 473 kts | 139° |
| 2026-05-05 19:13 | 50.86141 | 14.47476 | 32788 ft | 475 kts | 137° |
| 2026-05-05 19:13 | 50.81548 | 14.54817 | 32788 ft | 475 kts | 138° |
| 2026-05-05 19:14 | 50.77024 | 14.61960 | 32772 ft | 475 kts | 138° |
| 2026-05-05 19:14 | 50.72354 | 14.69318 | 32768 ft | 474 kts | 138° |
| 2026-05-05 19:15 | 50.67765 | 14.76536 | 32770 ft | 475 kts | 138° |
| 2026-05-05 19:15 | 50.63076 | 14.83895 | 32773 ft | 476 kts | 138° |
| 2026-05-05 19:16 | 50.58380 | 14.91243 | 32761 ft | 476 kts | 138° |
| 2026-05-05 19:16 | 50.53664 | 14.98599 | 33099 ft | 478 kts | 138° |
| 2026-05-05 19:17 | 50.51313 | 15.02258 | 33479 ft | 476 kts | 137° |
| 2026-05-05 19:17 | 50.48964 | 15.05911 | 33858 ft | 474 kts | 137° |
| 2026-05-05 19:17 | 50.46627 | 15.09537 | 34179 ft | 473 kts | 137° |
| 2026-05-05 19:17 | 50.44283 | 15.13169 | 34445 ft | 473 kts | 138° |
| 2026-05-05 19:18 | 50.41942 | 15.16791 | 34654 ft | 474 kts | 138° |
| 2026-05-05 19:18 | 50.39585 | 15.20431 | 34684 ft | 478 kts | 138° |
| 2026-05-05 19:18 | 50.34918 | 15.27624 | 34735 ft | 476 kts | 138° |
| 2026-05-05 19:19 | 50.30290 | 15.34742 | 34740 ft | 470 kts | 138° |
| 2026-05-05 19:19 | 50.25636 | 15.41877 | 34734 ft | 468 kts | 138° |
| 2026-05-05 19:20 | 50.20989 | 15.48977 | 34752 ft | 468 kts | 138° |
| 2026-05-05 19:20 | 50.16325 | 15.56081 | 34756 ft | 470 kts | 138° |
| 2026-05-05 19:21 | 50.11629 | 15.63216 | 34759 ft | 473 kts | 138° |
| 2026-05-05 19:21 | 50.06899 | 15.70381 | 34750 ft | 475 kts | 138° |
| 2026-05-05 19:22 | 50.02153 | 15.77552 | 34750 ft | 477 kts | 138° |
| 2026-05-05 19:22 | 49.97382 | 15.84739 | 34749 ft | 478 kts | 138° |
| 2026-05-05 19:23 | 49.92604 | 15.91916 | 34747 ft | 478 kts | 138° |
| 2026-05-05 19:23 | 49.87824 | 15.99074 | 34759 ft | 477 kts | 138° |
| 2026-05-05 19:24 | 49.83046 | 16.06209 | 34745 ft | 476 kts | 138° |
| 2026-05-05 19:24 | 49.78216 | 16.13401 | 34758 ft | 475 kts | 139° |
| 2026-05-05 19:25 | 49.61933 | 16.37492 | 34757 ft | 472 kts | 139° |
| 2026-05-05 19:25 | 49.42912 | 16.65337 | 34779 ft | 471 kts | 139° |
| 2026-05-05 19:26 | 49.23837 | 16.92951 | 34806 ft | 473 kts | 139° |
| 2026-05-05 19:26 | 49.04578 | 17.20530 | 34809 ft | 476 kts | 139° |
| 2026-05-05 19:27 | 48.85511 | 17.48750 | 34799 ft | 480 kts | 138° |
| 2026-05-05 19:27 | 48.67502 | 17.78792 | 34801 ft | 483 kts | 134° |
| 2026-05-05 19:28 | 48.49647 | 18.09058 | 34853 ft | 483 kts | 134° |
| 2026-05-05 19:28 | 48.31819 | 18.38937 | 34868 ft | 483 kts | 134° |
| 2026-05-05 19:29 | 48.13766 | 18.68854 | 34880 ft | 483 kts | 134° |
| 2026-05-05 19:29 | 47.95660 | 18.98519 | 34907 ft | 484 kts | 134° |
| 2026-05-05 19:30 | 47.77443 | 19.28034 | 34913 ft | 483 kts | 134° |
| 2026-05-05 19:30 | 47.59165 | 19.57318 | 34909 ft | 483 kts | 134° |
| 2026-05-05 19:31 | 47.40807 | 19.86410 | 34918 ft | 483 kts | 134° |
| 2026-05-05 19:31 | 47.22372 | 20.15305 | 34909 ft | 484 kts | 134° |
| 2026-05-05 19:32 | 47.03840 | 20.44038 | 34908 ft | 485 kts | 134° |
| 2026-05-05 19:32 | 46.85199 | 20.72629 | 34912 ft | 486 kts | 134° |
| 2026-05-05 19:33 | 46.66490 | 21.01019 | 34892 ft | 486 kts | 135° |
| 2026-05-05 19:33 | 46.47820 | 21.29091 | 34927 ft | 485 kts | 134° |
| 2026-05-05 19:34 | 46.29542 | 21.57834 | 34930 ft | 485 kts | 133° |
| 2026-05-05 19:35 | 46.01928 | 22.00539 | 34957 ft | 485 kts | 133° |
| 2026-05-05 19:35 | 45.83419 | 22.28797 | 34985 ft | 486 kts | 133° |
| 2026-05-05 19:36 | 45.64814 | 22.56907 | 34997 ft | 487 kts | 133° |
| 2026-05-05 19:36 | 45.46085 | 22.84915 | 35029 ft | 489 kts | 133° |
| 2026-05-05 19:37 | 45.27188 | 23.12884 | 35024 ft | 492 kts | 133° |
| 2026-05-05 19:37 | 45.08367 | 23.41063 | 34992 ft | 492 kts | 126° |
| 2026-05-05 19:38 | 44.91942 | 23.72022 | 35000 ft | 493 kts | 126° |
| 2026-05-05 19:38 | 44.76489 | 24.00612 | 34999 ft | 495 kts | 126° |
| 2026-05-05 19:39 | 44.60920 | 24.29134 | 34983 ft | 497 kts | 126° |
| 2026-05-05 19:39 | 44.46402 | 24.55479 | 34980 ft | 498 kts | 126° |
| 2026-05-05 19:40 | 44.30717 | 24.83669 | 34992 ft | 498 kts | 126° |
| 2026-05-05 19:40 | 44.13639 | 25.14062 | 34997 ft | 497 kts | 126° |
| 2026-05-05 19:41 | 43.97899 | 25.42123 | 34997 ft | 495 kts | 121° |
| 2026-05-05 19:41 | 43.86108 | 25.74720 | 35003 ft | 491 kts | 114° |
| 2026-05-05 19:42 | 43.75062 | 26.05201 | 35016 ft | 491 kts | 114° |
| 2026-05-05 19:42 | 43.63516 | 26.36724 | 35029 ft | 490 kts | 114° |
| 2026-05-05 19:43 | 43.51126 | 26.70165 | 35030 ft | 489 kts | 115° |
| 2026-05-05 19:43 | 43.38690 | 27.03338 | 35066 ft | 486 kts | 115° |
| 2026-05-05 19:44 | 43.26219 | 27.36206 | 35080 ft | 483 kts | 116° |
| 2026-05-05 19:44 | 43.13738 | 27.68723 | 35072 ft | 481 kts | 116° |
| 2026-05-05 19:45 | 43.02086 | 27.98750 | 35074 ft | 480 kts | 116° |
| 2026-05-05 19:45 | 42.89497 | 28.30840 | 35089 ft | 480 kts | 116° |
| 2026-05-05 19:46 | 42.76782 | 28.62879 | 35084 ft | 482 kts | 116° |
| 2026-05-05 19:46 | 42.64787 | 28.92816 | 35123 ft | 483 kts | 116° |
| 2026-05-05 19:47 | 42.59223 | 29.06573 | 35082 ft | 485 kts | 116° |
| 2026-05-05 19:47 | 42.52714 | 29.22602 | 35076 ft | 485 kts | 116° |
| 2026-05-05 19:48 | 42.46297 | 29.38319 | 35077 ft | 486 kts | 116° |
| 2026-05-05 19:48 | 42.39727 | 29.54329 | 35092 ft | 487 kts | 116° |
| 2026-05-05 19:49 | 42.34420 | 29.69917 | 35070 ft | 482 kts | 104° |
| 2026-05-05 19:49 | 42.30112 | 29.87231 | 35088 ft | 483 kts | 105° |
| 2026-05-05 19:50 | 42.27920 | 29.95808 | 35071 ft | 482 kts | 105° |
| 2026-05-05 19:50 | 42.25728 | 30.04356 | 35078 ft | 481 kts | 105° |
| 2026-05-05 19:51 | 42.23893 | 30.11500 | 35067 ft | 481 kts | 105° |
| 2026-05-05 19:51 | 42.21699 | 30.20017 | 35086 ft | 480 kts | 105° |
| 2026-05-05 19:52 | 42.19502 | 30.28513 | 35066 ft | 480 kts | 105° |
| 2026-05-05 19:52 | 42.17302 | 30.36995 | 35060 ft | 479 kts | 105° |
| 2026-05-05 19:53 | 42.15097 | 30.45462 | 35066 ft | 479 kts | 106° |
| 2026-05-05 19:53 | 42.12885 | 30.53927 | 35077 ft | 479 kts | 106° |
| 2026-05-05 19:54 | 42.10718 | 30.62194 | 35064 ft | 480 kts | 106° |
| 2026-05-05 19:54 | 42.08490 | 30.70660 | 35063 ft | 480 kts | 106° |
| 2026-05-05 19:55 | 42.06252 | 30.79136 | 35070 ft | 481 kts | 106° |
| 2026-05-05 19:55 | 42.04008 | 30.87608 | 35060 ft | 481 kts | 106° |
| 2026-05-05 19:56 | 42.01754 | 30.96093 | 35065 ft | 482 kts | 106° |
| 2026-05-05 19:56 | 41.99524 | 31.04453 | 35062 ft | 482 kts | 106° |
| 2026-05-05 19:57 | 41.97245 | 31.12928 | 35066 ft | 482 kts | 107° |
| 2026-05-05 19:57 | 41.94965 | 31.21380 | 35059 ft | 483 kts | 107° |
| 2026-05-05 19:58 | 41.92675 | 31.29848 | 35060 ft | 483 kts | 107° |
| 2026-05-05 19:58 | 41.89686 | 31.40863 | 35070 ft | 483 kts | 107° |
| 2026-05-05 19:59 | 41.80478 | 31.74694 | 35066 ft | 483 kts | 106° |
| 2026-05-05 19:59 | 41.71723 | 32.06162 | 35065 ft | 485 kts | 107° |
| 2026-05-05 20:00 | 41.62904 | 32.37636 | 35066 ft | 486 kts | 107° |
| 2026-05-05 20:00 | 41.53272 | 32.71554 | 35079 ft | 490 kts | 107° |
| 2026-05-05 20:01 | 41.42979 | 33.05231 | 35061 ft | 497 kts | 117° |
| 2026-05-05 20:01 | 41.29632 | 33.37528 | 35045 ft | 498 kts | 115° |
| 2026-05-05 20:02 | 41.16705 | 33.70098 | 35070 ft | 499 kts | 115° |
| 2026-05-05 20:02 | 41.03763 | 34.02384 | 35024 ft | 498 kts | 116° |
| 2026-05-05 20:03 | 40.90698 | 34.34630 | 34989 ft | 496 kts | 116° |
| 2026-05-05 20:03 | 40.77629 | 34.66552 | 34985 ft | 493 kts | 116° |
| 2026-05-05 20:03 | 40.72484 | 34.83144 | 34995 ft | 488 kts | 103° |
| 2026-05-05 20:04 | 40.68759 | 35.00300 | 34992 ft | 487 kts | 105° |
| 2026-05-05 20:04 | 40.61072 | 35.34546 | 34989 ft | 487 kts | 105° |
| 2026-05-05 20:05 | 40.53303 | 35.68662 | 35007 ft | 487 kts | 106° |
| 2026-05-05 20:05 | 40.45423 | 36.02750 | 35035 ft | 488 kts | 106° |
| 2026-05-05 20:06 | 40.37427 | 36.36823 | 35040 ft | 489 kts | 107° |
| 2026-05-05 20:06 | 40.30145 | 36.67420 | 35038 ft | 488 kts | 108° |
| 2026-05-05 20:07 | 40.22608 | 36.98673 | 35031 ft | 488 kts | 108° |
| 2026-05-05 20:07 | 40.14936 | 37.30064 | 35010 ft | 488 kts | 109° |
| 2026-05-05 20:08 | 40.06469 | 37.63728 | 35001 ft | 487 kts | 112° |
| 2026-05-05 20:08 | 39.96784 | 37.96304 | 34997 ft | 487 kts | 112° |
| 2026-05-05 20:09 | 39.86938 | 38.29546 | 34985 ft | 486 kts | 113° |
| 2026-05-05 20:09 | 39.77105 | 38.62310 | 34962 ft | 485 kts | 113° |
| 2026-05-05 20:10 | 39.67213 | 38.94882 | 34955 ft | 484 kts | 114° |
| 2026-05-05 20:10 | 39.57333 | 39.27027 | 34968 ft | 483 kts | 114° |
| 2026-05-05 20:11 | 39.47865 | 39.59675 | 34919 ft | 485 kts | 111° |
| 2026-05-05 20:11 | 39.39266 | 39.93040 | 34960 ft | 486 kts | 111° |
| 2026-05-05 20:12 | 39.29120 | 40.24833 | 34954 ft | 477 kts | 131° |
| 2026-05-05 20:12 | 39.12927 | 40.51903 | 34945 ft | 476 kts | 131° |
| 2026-05-05 20:13 | 38.96749 | 40.78957 | 34955 ft | 477 kts | 131° |
| 2026-05-05 20:13 | 38.80493 | 41.05910 | 34942 ft | 478 kts | 132° |
| 2026-05-05 20:14 | 38.64114 | 41.32847 | 34939 ft | 479 kts | 133° |
| 2026-05-05 20:14 | 38.48146 | 41.60093 | 34919 ft | 479 kts | 132° |
| 2026-05-05 20:15 | 38.32279 | 41.87439 | 34956 ft | 480 kts | 133° |
| 2026-05-05 20:15 | 38.16318 | 42.14738 | 34899 ft | 481 kts | 133° |
| 2026-05-05 20:16 | 38.04584 | 42.34614 | 34924 ft | 479 kts | 134° |
| 2026-05-05 20:16 | 37.92202 | 42.55444 | 34903 ft | 479 kts | 134° |
| 2026-05-05 20:17 | 37.83544 | 42.70752 | 34914 ft | 486 kts | 128° |
| 2026-05-05 20:17 | 37.69582 | 43.00107 | 34928 ft | 488 kts | 129° |
| 2026-05-05 20:18 | 37.55422 | 43.29435 | 34962 ft | 491 kts | 129° |
| 2026-05-05 20:18 | 37.41239 | 43.58633 | 34962 ft | 488 kts | 130° |
| 2026-05-05 20:19 | 37.26807 | 43.87899 | 34997 ft | 495 kts | 131° |
| 2026-05-05 20:19 | 37.21907 | 43.94039 | 34967 ft | 464 kts | 156° |
| 2026-05-05 20:19 | 37.10272 | 43.99845 | 34939 ft | 450 kts | 168° |
| 2026-05-05 20:20 | 36.86837 | 44.10780 | 34917 ft | 451 kts | 168° |
| 2026-05-05 20:20 | 36.73651 | 44.16889 | 34861 ft | 449 kts | 168° |
| 2026-05-05 20:21 | 36.65155 | 44.20803 | 34926 ft | 447 kts | 169° |
| 2026-05-05 20:21 | 36.41876 | 44.31465 | 34907 ft | 444 kts | 170° |
| 2026-05-05 20:22 | 36.29860 | 44.36947 | 34973 ft | 442 kts | 170° |
| 2026-05-05 20:22 | 36.06743 | 44.47433 | 34911 ft | 443 kts | 171° |
| 2026-05-05 20:23 | 35.83777 | 44.57796 | 34909 ft | 442 kts | 171° |
| 2026-05-05 20:23 | 35.60633 | 44.68169 | 34920 ft | 443 kts | 171° |
| 2026-05-05 20:24 | 35.37422 | 44.78509 | 34943 ft | 445 kts | 172° |
| 2026-05-05 20:24 | 35.14064 | 44.88851 | 34952 ft | 447 kts | 172° |
| 2026-05-05 20:25 | 34.90607 | 44.99175 | 34872 ft | 449 kts | 172° |
| 2026-05-05 20:25 | 34.67123 | 45.09448 | 34915 ft | 448 kts | 172° |
| 2026-05-05 20:26 | 34.43536 | 45.17389 | 34921 ft | 422 kts | 188° |
| 2026-05-05 20:26 | 34.19963 | 45.18947 | 34920 ft | 425 kts | 187° |
| 2026-05-05 20:27 | 33.96247 | 45.20556 | 34921 ft | 427 kts | 187° |
| 2026-05-05 20:27 | 33.72485 | 45.22158 | 34948 ft | 428 kts | 187° |
| 2026-05-05 20:28 | 33.48684 | 45.23753 | 34934 ft | 429 kts | 187° |
| 2026-05-05 20:28 | 33.25087 | 45.29386 | 34953 ft | 481 kts | 153° |
| 2026-05-05 20:29 | 33.04028 | 45.49481 | 34926 ft | 484 kts | 153° |
| 2026-05-05 20:29 | 32.82841 | 45.69313 | 34969 ft | 485 kts | 153° |
| 2026-05-05 20:30 | 32.61591 | 45.89098 | 34944 ft | 485 kts | 153° |
| 2026-05-05 20:30 | 32.40482 | 46.08636 | 34954 ft | 485 kts | 153° |
| 2026-05-05 20:31 | 32.19152 | 46.28258 | 34951 ft | 486 kts | 153° |
| 2026-05-05 20:31 | 32.00430 | 46.45377 | 35108 ft | 492 kts | 153° |
| 2026-05-05 20:31 | 31.95206 | 46.50140 | 35648 ft | 491 kts | 153° |
| 2026-05-05 20:32 | 31.92809 | 46.52325 | 35934 ft | 490 kts | 153° |
| 2026-05-05 20:32 | 31.91937 | 46.53121 | 36041 ft | 490 kts | 153° |